Ar Chaden III — FGF5357 — position and weather

sailwx.info

Track history (hours):
 
Tides and Currents Weather Stations Pressure Air Temp Water Temp Dewpoint Dewpoint Depression Visibility Wind Speed Wind Dir Waves Ship Positions

Ar Chaden III

Last reported at 2018-May-19 18:09 UTC. Time now 2018-Jun-23 06:22 UTC.
Position N 48°47' W 003°01'.
Warning: this ship's position is 34 days out of date.

Length 12 m.

Type: Pleasure craft. MMSI: 227730430.

Date/timePositionNaut miles runAvg speedWind from/ knotsBaromVisibWave heightAir tempDewpointWater temp
2018-May-19 18:09N 48°47' W 003°01'1 5.8
2018-May-19 17:59N 48°47' W 002°59'2 4.2
2018-May-19 17:24N 48°50' W 002°58'4 7.2
2018-May-19 16:53N 48°53' W 002°60'3 0.1
2018-May-17 13:25N 48°50' W 003°00'3 6.1
2018-May-17 12:57N 48°49' W 002°57'3 7.2
2018-May-17 12:29N 48°46' W 002°53'4 8.7
2018-May-17 11:59N 48°42' W 002°51'3 7.0
2018-May-17 11:31N 48°39' W 002°49'0 0.2
2018-May-17 11:00N 48°39' W 002°49'0 0.0
2018-May-17 10:27N 48°39' W 002°49'0 0.0
2018-May-17 09:48N 48°39' W 002°49'0 0.0
2018-May-17 09:27N 48°39' W 002°49'0 0.0
2018-May-17 09:00N 48°39' W 002°49'2 3.9
2018-May-17 08:30N 48°37' W 002°49'1 0.6
2018-May-17 06:54N 48°36' W 002°49'  
Track history (hours):
 
Tides and Currents Weather Stations Pressure Air Temp Water Temp Dewpoint Dewpoint Depression Visibility Wind Speed Wind Dir Waves Ship Positions

Ar Chaden III

Last reported at 2018-May-19 18:09 UTC. Time now 2018-Jun-23 06:22 UTC.
Position N 48°47' W 003°01'.
Warning: this ship's position is 34 days out of date.

Length 12 m.

Type: Pleasure craft. MMSI: 227730430.

Date/timePositionNaut miles runAvg speedWind from/ knotsBaromVisibWave heightAir tempDewpointWater temp
2018-May-19 18:09N 48°47' W 003°01'1 5.8
2018-May-19 17:59N 48°47' W 002°59'2 4.2
2018-May-19 17:24N 48°50' W 002°58'4 7.2
2018-May-19 16:53N 48°53' W 002°60'3 0.1
2018-May-17 13:25N 48°50' W 003°00'3 6.1
2018-May-17 12:57N 48°49' W 002°57'3 7.2
2018-May-17 12:29N 48°46' W 002°53'4 8.7
2018-May-17 11:59N 48°42' W 002°51'3 7.0
2018-May-17 11:31N 48°39' W 002°49'0 0.2
2018-May-17 11:00N 48°39' W 002°49'0 0.0
2018-May-17 10:27N 48°39' W 002°49'0 0.0
2018-May-17 09:48N 48°39' W 002°49'0 0.0
2018-May-17 09:27N 48°39' W 002°49'0 0.0
2018-May-17 09:00N 48°39' W 002°49'2 3.9
2018-May-17 08:30N 48°37' W 002°49'1 0.6
2018-May-17 06:54N 48°36' W 002°49'  

Dump ship's entire track history